createdAt,value
2022-09-12T00:00:11.612Z,10.98
2022-09-12T00:02:37.098Z,9.55
2022-09-12T00:05:00.358Z,7.90
2022-09-12T00:07:22.962Z,10.27
2022-09-12T00:09:45.512Z,9.55
2022-09-12T00:12:08.355Z,9.93
2022-09-12T00:14:30.948Z,8.88
2022-09-12T00:16:53.595Z,9.32
2022-09-12T00:19:17.291Z,9.85
2022-09-12T00:21:40.801Z,10.35
2022-09-12T00:24:03.577Z,8.95
2022-09-12T00:26:26.388Z,9.90
2022-09-12T00:28:49.316Z,9.48
2022-09-12T00:31:18.270Z,9.73
2022-09-12T00:33:41.320Z,10.05
2022-09-12T00:36:12.576Z,8.93
2022-09-12T00:38:38.582Z,10.65
2022-09-12T00:41:01.127Z,9.90
2022-09-12T00:43:43.255Z,10.40
2022-09-12T00:46:13.360Z,8.70
2022-09-12T00:48:44.147Z,9.77
2022-09-12T00:51:06.939Z,10.00
2022-09-12T00:53:30.095Z,9.93
2022-09-12T00:55:54.031Z,9.40
2022-09-12T00:58:28.369Z,9.43
2022-09-12T01:00:51.680Z,10.98
2022-09-12T01:03:17.172Z,10.93
2022-09-12T01:05:45.061Z,10.75
2022-09-12T01:08:08.146Z,9.20
2022-09-12T01:10:31.920Z,9.07
2022-09-12T01:12:54.709Z,9.10
2022-09-12T01:15:17.335Z,11.43
2022-09-12T01:17:55.046Z,9.15
2022-09-12T01:20:30.088Z,9.48
2022-09-12T01:23:20.426Z,10.10
2022-09-12T01:26:17.638Z,9.32
2022-09-12T01:29:17.743Z,10.32
2022-09-12T01:31:47.664Z,11.30
2022-09-12T01:34:38.502Z,10.15
2022-09-12T01:37:20.414Z,10.20
2022-09-12T01:40:16.010Z,10.90
2022-09-12T01:42:58.761Z,10.32
2022-09-12T01:45:43.469Z,10.15
2022-09-12T01:48:14.631Z,9.75
2022-09-12T01:50:44.347Z,11.05
2022-09-12T01:53:18.626Z,9.95
2022-09-12T01:55:50.010Z,9.90
2022-09-12T01:58:17.903Z,11.02
2022-09-12T02:00:52.671Z,11.18
2022-09-12T02:03:20.490Z,12.95
2022-09-12T02:05:52.179Z,12.27
2022-09-12T02:08:19.326Z,13.02
2022-09-12T02:11:09.466Z,13.07
2022-09-12T02:13:41.045Z,12.50
2022-09-12T02:16:13.298Z,10.55
2022-09-12T02:18:43.879Z,11.05
2022-09-12T02:21:07.917Z,13.05
2022-09-12T02:23:32.757Z,11.13
2022-09-12T02:26:01.624Z,14.23
2022-09-12T02:28:38.452Z,13.68
2022-09-12T02:31:07.826Z,11.55
2022-09-12T02:33:40.618Z,12.35
2022-09-12T02:36:24.834Z,10.43
2022-09-12T02:38:48.734Z,12.07
2022-09-12T02:41:14.292Z,11.18
2022-09-12T02:43:37.955Z,11.40
2022-09-12T02:46:00.605Z,11.65
2022-09-12T02:48:35.624Z,10.85
2022-09-12T02:50:58.897Z,12.98
2022-09-12T02:53:22.035Z,13.52
2022-09-12T02:55:44.918Z,11.63
2022-09-12T02:58:13.000Z,11.15
2022-09-12T03:00:48.097Z,11.65
2022-09-12T03:03:29.303Z,11.73
2022-09-12T03:06:06.974Z,10.32
2022-09-12T03:08:53.241Z,11.13
2022-09-12T03:11:34.299Z,10.05
2022-09-12T03:14:05.745Z,10.80
2022-09-12T03:16:55.730Z,10.63
2022-09-12T03:19:33.951Z,10.65
2022-09-12T03:22:02.199Z,10.13
2022-09-12T03:24:39.199Z,9.82
2022-09-12T03:27:14.267Z,12.23
2022-09-12T03:29:39.352Z,10.60
2022-09-12T03:32:02.012Z,11.55
2022-09-12T03:34:26.860Z,11.18
2022-09-12T03:36:49.907Z,10.85
2022-09-12T03:39:12.610Z,11.55
2022-09-12T03:41:35.168Z,11.30
2022-09-12T03:43:57.807Z,12.05
2022-09-12T03:46:20.293Z,11.32
2022-09-12T03:48:43.065Z,12.95
2022-09-12T03:51:09.839Z,14.27
2022-09-12T03:53:32.916Z,13.50
2022-09-12T03:55:55.688Z,16.63
2022-09-12T03:58:18.285Z,15.48
2022-09-12T04:00:41.111Z,16.05
2022-09-12T04:03:03.813Z,16.00
2022-09-12T04:05:27.001Z,16.90
2022-09-12T04:07:50.077Z,16.77
2022-09-12T04:10:12.749Z,16.23
2022-09-12T04:12:35.770Z,15.73
2022-09-12T04:14:58.278Z,14.45
2022-09-12T04:17:20.806Z,16.73
2022-09-12T04:19:43.366Z,15.18
2022-09-12T04:22:06.160Z,13.43
2022-09-12T04:24:28.964Z,14.65
2022-09-12T04:26:53.916Z,13.98
2022-09-12T04:29:16.646Z,14.70
2022-09-12T04:31:39.557Z,15.23
2022-09-12T04:34:02.125Z,14.80
2022-09-12T04:36:25.948Z,14.30
2022-09-12T04:38:49.332Z,14.82
2022-09-12T04:41:12.105Z,14.80
2022-09-12T04:43:34.766Z,16.80
2022-09-12T04:46:05.868Z,13.50
2022-09-12T04:48:28.538Z,17.17
2022-09-12T04:50:51.057Z,18.70
2022-09-12T04:53:13.588Z,15.55
2022-09-12T04:55:36.147Z,17.55
2022-09-12T04:57:58.980Z,18.23
2022-09-12T05:00:21.740Z,16.33
2022-09-12T05:02:44.494Z,16.45
2022-09-12T05:05:07.273Z,15.90
2022-09-12T05:07:29.867Z,15.63
2022-09-12T05:09:52.661Z,15.57
2022-09-12T05:12:15.481Z,14.15
2022-09-12T05:14:39.162Z,15.70
2022-09-12T05:17:22.640Z,14.70
2022-09-12T05:19:45.390Z,18.20
2022-09-12T05:22:07.971Z,15.15
2022-09-12T05:24:30.633Z,13.70
2022-09-12T05:26:53.299Z,13.82
2022-09-12T05:29:15.841Z,14.18
2022-09-12T05:31:39.265Z,12.80
2022-09-12T05:34:04.775Z,14.43
2022-09-12T05:36:30.764Z,12.18
2022-09-12T05:38:54.376Z,14.07
2022-09-12T05:41:24.983Z,15.32
2022-09-12T05:43:54.833Z,13.57
2022-09-12T05:46:26.248Z,12.98
2022-09-12T05:48:55.655Z,14.27
2022-09-12T05:51:21.348Z,13.93
2022-09-12T05:53:46.331Z,17.15
2022-09-12T05:56:16.814Z,13.30
2022-09-12T05:58:43.172Z,15.02
2022-09-12T06:01:16.475Z,13.57
2022-09-12T06:03:51.369Z,14.10
2022-09-12T06:09:06.610Z,15.27
2022-09-12T06:11:40.673Z,13.27
2022-09-12T06:14:21.352Z,15.68
2022-09-12T06:16:56.134Z,17.65
2022-09-12T06:19:27.746Z,12.98
2022-09-12T06:21:57.298Z,13.10
2022-09-12T06:24:22.996Z,13.23
2022-09-12T06:27:25.420Z,13.35
2022-09-12T06:30:00.204Z,15.75
2022-09-12T06:32:28.525Z,14.88
2022-09-12T06:34:57.031Z,13.55
2022-09-12T06:37:26.076Z,13.43
2022-09-12T06:40:30.250Z,13.15
2022-09-12T06:42:57.239Z,12.40
2022-09-12T06:45:28.369Z,12.07
2022-09-12T06:47:52.797Z,11.00
2022-09-12T06:50:16.533Z,12.00
2022-09-12T06:52:41.626Z,13.80
2022-09-12T06:55:07.557Z,11.90
2022-09-12T06:57:46.030Z,11.52
2022-09-12T07:00:14.731Z,10.95
2022-09-12T07:02:43.901Z,11.43
2022-09-12T07:05:14.353Z,12.00
2022-09-12T07:07:38.899Z,12.80
2022-09-12T07:10:04.147Z,9.68
2022-09-12T07:12:29.629Z,10.57
2022-09-12T07:17:34.160Z,9.80
2022-09-12T07:20:12.153Z,9.18
2022-09-12T07:22:56.790Z,8.43
2022-09-12T07:25:27.377Z,8.15
2022-09-12T07:27:58.413Z,9.35
2022-09-12T07:30:30.364Z,8.60
2022-09-12T07:33:14.709Z,7.95
2022-09-12T07:35:41.065Z,8.98
2022-09-12T07:38:10.032Z,7.45
2022-09-12T07:41:05.626Z,9.05
2022-09-12T07:43:43.633Z,8.27
2022-09-12T07:46:15.951Z,9.90
2022-09-12T07:48:41.688Z,7.50
2022-09-12T07:51:11.964Z,7.45
2022-09-12T07:53:41.487Z,6.53
2022-09-12T07:56:05.969Z,8.63
2022-09-12T07:58:30.422Z,9.77
2022-09-12T08:00:56.561Z,8.57
2022-09-12T08:03:32.180Z,6.72
2022-09-12T08:06:21.536Z,6.43
2022-09-12T08:08:53.530Z,6.30
2022-09-12T08:14:38.204Z,6.88
2022-09-12T08:17:32.025Z,8.38
2022-09-12T08:20:15.504Z,6.93
2022-09-12T08:22:57.877Z,8.43
2022-09-12T08:25:44.631Z,5.97
2022-09-12T08:28:17.516Z,5.63
2022-09-12T08:30:44.338Z,5.22
2022-09-12T08:33:08.147Z,7.20
2022-09-12T08:35:33.661Z,6.00
2022-09-12T08:38:01.532Z,7.60
2022-09-12T08:40:25.818Z,5.40
2022-09-12T08:43:23.815Z,5.45
2022-09-12T08:46:00.509Z,4.90
2022-09-12T08:48:23.684Z,5.85
2022-09-12T08:50:50.123Z,4.47
2022-09-12T08:53:21.730Z,4.68
2022-09-12T08:55:51.469Z,7.65
2022-09-12T08:58:21.392Z,7.03
2022-09-12T09:01:17.786Z,4.97
2022-09-12T09:03:51.733Z,5.18
2022-09-12T09:06:56.498Z,5.80
2022-09-12T09:09:50.904Z,4.63
2022-09-12T09:12:20.267Z,6.00
2022-09-12T09:14:50.268Z,5.35
2022-09-12T09:17:28.327Z,4.68
2022-09-12T09:20:03.878Z,4.75
2022-09-12T09:22:43.219Z,4.70
2022-09-12T09:25:22.693Z,7.55
2022-09-12T09:27:58.064Z,5.53
2022-09-12T09:30:21.809Z,5.60
2022-09-12T09:32:49.709Z,5.03
2022-09-12T09:35:28.005Z,4.60
2022-09-12T09:38:08.906Z,5.70
2022-09-12T09:40:40.622Z,5.57
2022-09-12T09:43:13.814Z,8.98
2022-09-12T09:45:38.073Z,4.18
2022-09-12T09:48:24.177Z,6.15
2022-09-12T09:50:49.375Z,7.00
2022-09-12T09:53:32.396Z,7.43
2022-09-12T09:55:56.957Z,6.53
2022-09-12T09:58:34.322Z,5.10
2022-09-12T10:01:17.820Z,4.53
2022-09-12T10:04:05.574Z,4.65
2022-09-12T10:07:00.567Z,4.78
2022-09-12T10:09:30.159Z,4.63
2022-09-12T10:11:55.000Z,6.65
2022-09-12T10:14:36.912Z,5.63
2022-09-12T10:16:59.887Z,6.22
2022-09-12T10:19:36.484Z,5.33
2022-09-12T10:22:00.992Z,7.53
2022-09-12T10:24:43.653Z,5.53
2022-09-12T10:27:12.573Z,5.95
2022-09-12T10:29:46.603Z,5.22
2022-09-12T10:32:09.975Z,4.63
2022-09-12T10:34:43.441Z,6.10
2022-09-12T10:37:08.630Z,4.97
2022-09-12T10:39:33.543Z,6.00
2022-09-12T10:41:56.372Z,6.43
2022-09-12T10:44:28.668Z,5.53
2022-09-12T10:46:51.638Z,5.43
2022-09-12T10:49:21.483Z,6.07
2022-09-12T10:51:44.352Z,5.82
2022-09-12T10:54:12.542Z,5.47
2022-09-12T10:56:43.264Z,5.15
2022-09-12T10:59:41.475Z,6.20
2022-09-12T11:02:31.149Z,6.50
2022-09-12T11:04:59.853Z,5.47
2022-09-12T11:07:31.994Z,6.38
2022-09-12T11:10:23.291Z,5.05
2022-09-12T11:12:58.341Z,4.70
2022-09-12T11:15:29.952Z,4.93
2022-09-12T11:18:17.573Z,6.30
2022-09-12T11:20:59.001Z,6.43
2022-09-12T11:23:43.697Z,6.07
2022-09-12T11:26:32.205Z,6.05
2022-09-12T11:29:03.937Z,5.18
2022-09-12T11:31:41.888Z,7.97
2022-09-12T11:34:10.283Z,6.75
2022-09-12T11:36:44.863Z,5.10
2022-09-12T11:39:36.749Z,6.05
2022-09-12T11:42:05.569Z,9.20
2022-09-12T11:44:39.993Z,7.97
2022-09-12T11:47:08.347Z,6.43
2022-09-12T11:49:38.430Z,8.60
2022-09-12T11:52:20.554Z,6.63
2022-09-12T11:54:52.800Z,7.45
2022-09-12T11:57:24.978Z,6.72
2022-09-12T12:00:20.674Z,7.20
2022-09-12T12:02:51.827Z,7.45
2022-09-12T12:05:20.877Z,5.40
2022-09-12T12:07:52.210Z,6.75
2022-09-12T12:10:42.714Z,6.53
2022-09-12T12:13:14.022Z,6.93
2022-09-12T12:15:39.185Z,6.57
2022-09-12T12:18:06.296Z,7.55
2022-09-12T12:20:29.627Z,9.27
2022-09-12T12:22:54.178Z,9.35
2022-09-12T12:25:21.338Z,8.15
2022-09-12T12:27:46.315Z,7.43
2022-09-12T12:30:29.148Z,5.53
2022-09-12T12:32:53.005Z,6.13
2022-09-12T12:35:39.889Z,8.10
2022-09-12T12:38:04.380Z,6.70
2022-09-12T12:40:29.601Z,5.18
2022-09-12T12:43:01.638Z,9.63
2022-09-12T12:45:27.056Z,5.93
2022-09-12T12:48:11.265Z,6.35
2022-09-12T12:50:34.368Z,6.30
2022-09-12T12:53:25.858Z,5.72
2022-09-12T12:55:51.743Z,5.20
2022-09-12T12:58:36.311Z,7.72
2022-09-12T13:01:19.225Z,5.63
2022-09-12T13:03:45.769Z,6.43
2022-09-12T13:06:19.946Z,8.48
2022-09-12T13:08:55.354Z,5.93
2022-09-12T13:11:33.379Z,6.90
2022-09-12T13:14:26.940Z,6.57
2022-09-12T13:17:14.446Z,4.90
2022-09-12T13:19:38.190Z,5.55
2022-09-12T13:22:06.733Z,4.80
2022-09-12T13:24:29.385Z,6.43
2022-09-12T13:26:53.665Z,5.47
2022-09-12T13:29:18.645Z,6.88
2022-09-12T13:31:47.119Z,8.50
2022-09-12T13:34:11.612Z,7.15
2022-09-12T13:37:05.117Z,8.68
2022-09-12T13:39:31.760Z,5.88
2022-09-12T13:42:26.892Z,5.38
2022-09-12T13:44:57.967Z,6.90
2022-09-12T13:47:31.018Z,12.93
2022-09-12T13:49:55.295Z,6.35
2022-09-12T13:52:25.587Z,6.30
2022-09-12T13:54:54.206Z,6.53
2022-09-12T13:57:38.083Z,5.82
2022-09-12T14:00:11.105Z,7.03
2022-09-12T14:02:36.818Z,5.75
2022-09-12T14:05:11.546Z,4.20
2022-09-12T14:07:40.456Z,4.60
2022-09-12T14:10:06.013Z,4.70
2022-09-12T14:12:33.560Z,4.78
2022-09-12T14:14:57.034Z,3.83
2022-09-12T14:17:32.448Z,4.07
2022-09-12T14:19:59.429Z,5.30
2022-09-12T14:22:22.701Z,4.37
2022-09-12T14:24:50.435Z,5.38
2022-09-12T14:27:15.574Z,4.22
2022-09-12T14:29:38.677Z,4.13
2022-09-12T14:32:03.677Z,5.03
2022-09-12T14:34:26.558Z,6.38
2022-09-12T14:36:55.051Z,5.35
2022-09-12T14:39:31.590Z,5.28
2022-09-12T14:42:21.074Z,5.15
2022-09-12T14:44:58.434Z,4.68
2022-09-12T14:47:27.397Z,3.83
2022-09-12T14:49:54.037Z,3.95
2022-09-12T14:52:35.011Z,3.65
2022-09-12T14:55:29.096Z,3.90
2022-09-12T14:58:22.872Z,3.78
2022-09-12T15:00:59.887Z,3.10
2022-09-12T15:03:49.550Z,3.22
2022-09-12T15:06:30.941Z,4.15
2022-09-12T15:08:55.164Z,4.38
2022-09-12T15:11:18.574Z,3.78
2022-09-12T15:13:42.460Z,3.78
2022-09-12T15:16:05.687Z,5.03
2022-09-12T15:18:29.242Z,3.50
2022-09-12T15:21:03.770Z,4.53
2022-09-12T15:23:53.890Z,5.50
2022-09-12T15:26:30.508Z,3.67
2022-09-12T15:28:53.442Z,2.75
2022-09-12T15:31:26.200Z,3.08
2022-09-12T15:33:48.874Z,4.43
2022-09-12T15:36:18.760Z,3.88
2022-09-12T15:38:41.528Z,3.33
2022-09-12T15:41:04.114Z,3.92
2022-09-12T15:43:26.609Z,3.65
2022-09-12T15:45:52.299Z,3.90
2022-09-12T15:48:14.974Z,3.95
2022-09-12T15:50:37.601Z,3.10
2022-09-12T15:53:00.270Z,3.15
2022-09-12T15:55:28.804Z,3.63
2022-09-12T15:57:51.420Z,3.88
2022-09-12T16:00:15.007Z,3.42
2022-09-12T16:02:37.714Z,3.90
2022-09-12T16:05:00.217Z,4.03
2022-09-12T16:07:22.855Z,3.28
2022-09-12T16:09:48.296Z,3.78
2022-09-12T16:12:11.125Z,3.28
2022-09-12T16:14:33.642Z,6.40
2022-09-12T16:16:57.137Z,5.85
2022-09-12T16:19:20.113Z,5.25
2022-09-12T16:21:43.116Z,4.65
2022-09-12T16:24:39.409Z,6.88
2022-09-12T16:27:02.553Z,4.35
2022-09-12T16:29:25.195Z,3.70
2022-09-12T16:31:47.788Z,3.85
2022-09-12T16:34:11.071Z,5.82
2022-09-12T16:36:33.797Z,3.08
2022-09-12T16:38:56.374Z,3.00
2022-09-12T16:41:22.269Z,3.42
2022-09-12T16:43:45.556Z,3.70
2022-09-12T16:46:11.440Z,3.65
2022-09-12T16:48:34.541Z,3.63
2022-09-12T16:51:02.045Z,3.28
2022-09-12T16:53:24.945Z,3.17
2022-09-12T16:55:51.345Z,3.03
2022-09-12T16:58:13.866Z,3.08
2022-09-12T17:00:36.346Z,3.80
2022-09-12T17:02:59.257Z,4.18
2022-09-12T17:05:21.878Z,4.40
2022-09-12T17:07:44.337Z,4.70
2022-09-12T17:10:07.345Z,3.17
2022-09-12T17:12:30.195Z,3.25
2022-09-12T17:14:52.804Z,4.18
2022-09-12T17:17:15.535Z,5.28
2022-09-12T17:19:38.277Z,3.38
2022-09-12T17:22:01.311Z,3.17
2022-09-12T17:24:24.383Z,3.30
2022-09-12T17:26:47.524Z,3.67
2022-09-12T17:29:15.135Z,3.80
2022-09-12T17:31:37.775Z,2.80
2022-09-12T17:34:01.624Z,3.67
2022-09-12T17:36:24.417Z,7.97
2022-09-12T17:38:46.976Z,3.38
2022-09-12T17:41:11.411Z,3.97
2022-09-12T17:43:35.255Z,4.00
2022-09-12T17:45:57.995Z,4.00
2022-09-12T17:48:20.669Z,3.70
2022-09-12T17:50:43.296Z,3.75
2022-09-12T17:53:06.879Z,3.00
2022-09-12T17:55:32.158Z,3.15
2022-09-12T17:57:54.668Z,3.63
2022-09-12T18:00:17.392Z,3.63
2022-09-12T18:02:40.211Z,2.88
2022-09-12T18:05:05.389Z,2.75
2022-09-12T18:07:27.939Z,3.13
2022-09-12T18:09:51.356Z,2.58
2022-09-12T18:12:15.140Z,2.70
2022-09-12T18:14:38.025Z,3.22
2022-09-12T18:17:00.884Z,3.90
2022-09-12T18:19:24.345Z,2.95
2022-09-12T18:21:47.013Z,2.83
2022-09-12T18:24:10.692Z,3.08
2022-09-12T18:26:33.557Z,2.42
2022-09-12T18:28:56.831Z,6.90
2022-09-12T18:31:22.298Z,2.65
2022-09-12T18:33:45.266Z,2.60
2022-09-12T18:36:09.989Z,3.40
2022-09-12T18:38:32.628Z,2.60
2022-09-12T18:41:02.387Z,2.45
2022-09-12T18:43:24.868Z,2.88
2022-09-12T18:45:47.613Z,2.83
2022-09-12T18:48:10.373Z,2.88
2022-09-12T18:50:33.519Z,2.92
2022-09-12T18:52:59.627Z,2.85
2022-09-12T18:55:23.928Z,2.40
2022-09-12T18:57:47.087Z,2.47
2022-09-12T19:00:12.414Z,4.57
2022-09-12T19:02:35.355Z,3.20
2022-09-12T19:04:58.284Z,2.53
2022-09-12T19:07:20.897Z,2.97
2022-09-12T19:09:43.678Z,3.95
2022-09-12T19:12:06.475Z,2.58
2022-09-12T19:14:29.046Z,3.15
2022-09-12T19:16:52.427Z,3.55
2022-09-12T19:19:14.965Z,2.72
2022-09-12T19:21:37.552Z,2.70
2022-09-12T19:24:03.513Z,4.00
2022-09-12T19:26:26.275Z,3.05
2022-09-12T19:28:49.448Z,3.50
2022-09-12T19:31:15.217Z,2.67
2022-09-12T19:33:38.575Z,3.00
2022-09-12T19:36:03.453Z,5.20
2022-09-12T19:38:26.853Z,3.50
2022-09-12T19:41:00.350Z,3.00
2022-09-12T19:43:22.991Z,2.58
2022-09-12T19:45:48.438Z,3.58
2022-09-12T19:48:11.209Z,2.95
2022-09-12T19:50:34.920Z,2.85
2022-09-12T19:52:57.856Z,5.28
2022-09-12T19:55:20.666Z,4.03
2022-09-12T19:57:43.389Z,3.03
2022-09-12T20:00:07.912Z,4.40
2022-09-12T20:02:31.124Z,2.67
2022-09-12T20:04:54.392Z,2.50
2022-09-12T20:07:16.945Z,3.70
2022-09-12T20:09:41.435Z,2.63
2022-09-12T20:12:04.720Z,6.78
2022-09-12T20:14:27.298Z,2.92
2022-09-12T20:16:49.886Z,4.30
2022-09-12T20:19:12.844Z,4.05
2022-09-12T20:21:36.728Z,3.33
2022-09-12T20:24:01.996Z,4.35
2022-09-12T20:26:26.568Z,3.60
2022-09-12T20:28:51.014Z,3.67
2022-09-12T20:31:15.733Z,6.10
2022-09-12T20:33:38.332Z,3.47
2022-09-12T20:36:10.066Z,4.10
2022-09-12T20:38:32.800Z,4.28
2022-09-12T20:40:55.339Z,3.17
2022-09-12T20:43:17.894Z,5.43
2022-09-12T20:45:41.617Z,3.53
2022-09-12T20:48:04.880Z,2.90
2022-09-12T20:50:27.429Z,3.65
2022-09-12T20:52:50.645Z,4.07
2022-09-12T20:55:13.163Z,3.20
2022-09-12T20:57:35.640Z,3.83
2022-09-12T20:59:58.965Z,5.82
2022-09-12T21:02:21.600Z,3.22
2022-09-12T21:04:44.161Z,3.85
2022-09-12T21:07:15.156Z,3.47
2022-09-12T21:09:37.833Z,3.53
2022-09-12T21:12:00.346Z,7.50
2022-09-12T21:14:23.095Z,3.88
2022-09-12T21:16:45.616Z,3.33
2022-09-12T21:19:08.139Z,3.42
2022-09-12T21:21:31.230Z,4.32
2022-09-12T21:23:57.800Z,4.35
2022-09-12T21:26:20.252Z,3.63
2022-09-12T21:28:43.290Z,4.63
2022-09-12T21:31:06.028Z,5.45
2022-09-12T21:33:28.628Z,3.97
2022-09-12T21:35:51.260Z,4.60
2022-09-12T21:38:18.247Z,4.43
2022-09-12T21:40:40.893Z,4.30
2022-09-12T21:43:03.844Z,5.22
2022-09-12T21:45:26.535Z,5.75
2022-09-12T21:47:49.108Z,5.13
2022-09-12T21:50:11.635Z,5.50
2022-09-12T21:52:35.176Z,5.68
2022-09-12T21:54:57.762Z,4.05
2022-09-12T21:57:20.408Z,4.20
2022-09-12T21:59:43.070Z,6.18
2022-09-12T22:02:08.588Z,4.68
2022-09-12T22:04:33.591Z,4.75
2022-09-12T22:06:56.150Z,5.50
2022-09-12T22:09:18.602Z,4.63
2022-09-12T22:11:41.645Z,4.55
2022-09-12T22:14:04.263Z,4.15
2022-09-12T22:16:26.875Z,5.22
2022-09-12T22:18:50.825Z,3.80
2022-09-12T22:21:16.649Z,6.07
2022-09-12T22:23:58.159Z,5.50
2022-09-12T22:26:20.728Z,5.15
2022-09-12T22:28:43.952Z,4.32
2022-09-12T22:31:06.737Z,6.90
2022-09-12T22:33:29.246Z,4.45
2022-09-12T22:35:51.868Z,4.05
2022-09-12T22:38:19.719Z,4.38
2022-09-12T22:40:42.434Z,4.72
2022-09-12T22:43:05.206Z,4.75
2022-09-12T22:45:27.798Z,6.03
2022-09-12T22:47:50.323Z,4.60
2022-09-12T22:50:13.086Z,5.95
2022-09-12T22:52:35.592Z,6.90
2022-09-12T22:54:59.113Z,5.97
2022-09-12T22:57:21.553Z,5.13
2022-09-12T22:59:44.199Z,6.32
2022-09-12T23:02:06.798Z,5.22
2022-09-12T23:04:29.921Z,7.20
2022-09-12T23:06:52.569Z,5.32
2022-09-12T23:09:15.336Z,5.65
2022-09-12T23:11:37.912Z,5.35
2022-09-12T23:14:03.843Z,6.57
2022-09-12T23:16:28.328Z,5.65
2022-09-12T23:18:51.622Z,5.72
2022-09-12T23:21:16.531Z,5.72
2022-09-12T23:23:39.957Z,5.53
2022-09-12T23:26:14.279Z,6.18
2022-09-12T23:28:37.553Z,4.65
2022-09-12T23:31:00.382Z,5.85
2022-09-12T23:33:23.509Z,5.93
2022-09-12T23:35:46.488Z,5.82
2022-09-12T23:38:12.651Z,4.70
2022-09-12T23:40:37.080Z,5.15
2022-09-12T23:42:59.585Z,5.65
2022-09-12T23:45:22.176Z,5.60
2022-09-12T23:47:44.787Z,5.40
2022-09-12T23:50:07.484Z,5.32
2022-09-12T23:52:30.418Z,5.03
2022-09-12T23:54:52.828Z,5.22
2022-09-12T23:57:15.282Z,5.00
2022-09-12T23:59:37.800Z,5.50
